Time;durP1;ratioP1;P1;durP2;ratioP2;P2;SDS_P1;SDS_P2;PMS_P1;PMS_P2;Temp;Humidity;BMP_temperature;BMP_pressure;BME280_temperature;BME280_humidity;BME280_pressure;Samples;Min_cycle;Max_cycle;Signal;HPM_P1;HPM_P2
2021/04/22 00:01:11;;;;;;;3.62;0.57;;;7.10;83.90;;;;;;4430352;32;20072;-72
2021/04/22 00:03:37;;;;;;;0.50;0.50;;;7.00;84.60;;;;;;4431301;32;20062;-72
2021/04/22 00:06:02;;;;;;;4.35;2.37;;;6.90;84.50;;;;;;4431685;32;20081;-72
2021/04/22 00:08:28;;;;;;;8.02;1.00;;;6.90;84.80;;;;;;4431919;32;20522;-72
2021/04/22 00:10:54;;;;;;;1.65;0.68;;;6.80;84.90;;;;;;4426319;32;20416;-72
2021/04/22 00:13:22;;;;;;;0.37;0.37;;;6.80;84.90;;;;;;4417335;32;20069;-72
2021/04/22 00:15:49;;;;;;;2.92;0.50;;;6.70;85.30;;;;;;4416307;32;20078;-72
2021/04/22 00:18:15;;;;;;;0.30;0.30;;;6.70;85.40;;;;;;4415999;32;20062;-72
2021/04/22 00:20:42;;;;;;;3.37;1.40;;;6.60;85.90;;;;;;4415249;32;20069;-72
2021/04/22 00:23:10;;;;;;;0.57;0.57;;;6.70;86.10;;;;;;4415704;32;20065;-72
2021/04/22 00:25:36;;;;;;;0.43;0.43;;;6.60;86.50;;;;;;4416760;32;20085;-72
2021/04/22 00:28:04;;;;;;;12.32;1.62;;;6.60;86.70;;;;;;4416603;32;20429;-72
2021/04/22 00:30:30;;;;;;;0.37;0.35;;;6.70;86.80;;;;;;4417334;32;20085;-72
2021/04/22 00:32:56;;;;;;;0.62;0.62;;;6.80;86.40;;;;;;4415389;32;20146;-74
2021/04/22 00:35:23;;;;;;;1.50;0.93;;;6.80;85.90;;;;;;4416074;32;20077;-72
2021/04/22 00:37:49;;;;;;;1.75;1.45;;;6.90;85.20;;;;;;4415921;32;20065;-72
2021/04/22 00:40:19;;;;;;;0.40;0.40;;;6.90;85.40;;;;;;4415384;32;20128;-73
2021/04/22 00:42:45;;;;;;;0.52;0.52;;;6.90;85.80;;;;;;4417348;32;20454;-72
2021/04/22 00:45:12;;;;;;;0.30;0.30;;;6.80;86.00;;;;;;4415912;32;20081;-74
2021/04/22 00:47:38;;;;;;;0.77;0.77;;;6.80;86.10;;;;;;4415284;32;20125;-72
2021/04/22 00:50:06;;;;;;;0.30;0.30;;;6.80;86.30;;;;;;4415689;32;20773;-73
2021/04/22 00:52:32;;;;;;;1.23;0.77;;;6.80;86.80;;;;;;4415473;32;20069;-72
2021/04/22 00:54:57;;;;;;;0.45;0.45;;;6.80;87.20;;;;;;4415317;32;20125;-72
2021/04/22 00:57:23;;;;;;;0.30;0.30;;;6.70;87.70;;;;;;4418019;32;20507;-73
2021/04/22 00:59:49;;;;;;;3.55;1.85;;;6.60;87.90;;;;;;4426328;32;20131;-73
2021/04/22 01:02:15;;;;;;;2.30;0.60;;;6.70;88.20;;;;;;4431610;32;20061;-73
2021/04/22 01:04:43;;;;;;;0.40;0.40;;;6.60;88.50;;;;;;4432790;32;20545;-72
2021/04/22 01:07:08;;;;;;;0.55;0.55;;;6.70;88.80;;;;;;4431783;32;20420;-72
2021/04/22 01:09:34;;;;;;;0.40;0.40;;;6.80;89.20;;;;;;4431853;32;20069;-73
2021/04/22 01:12:02;;;;;;;2.08;1.30;;;6.70;89.90;;;;;;4419230;32;20495;-73
2021/04/22 01:14:27;;;;;;;0.32;0.32;;;6.70;90.30;;;;;;4415202;32;20132;-73
2021/04/22 01:16:53;;;;;;;0.30;0.30;;;6.80;90.30;;;;;;4416259;32;20114;-73
2021/04/22 01:19:18;;;;;;;0.93;0.93;;;6.80;90.40;;;;;;4415753;32;20385;-73
2021/04/22 01:21:44;;;;;;;0.60;0.60;;;6.80;90.60;;;;;;4416025;32;20077;-73
2021/04/22 01:24:10;;;;;;;0.30;0.30;;;6.80;91.10;;;;;;4415008;32;20719;-73
2021/04/22 01:26:36;;;;;;;4.28;1.52;;;6.80;91.40;;;;;;4415777;32;20058;-73
2021/04/22 01:29:02;;;;;;;4.22;1.90;;;6.90;91.50;;;;;;4416046;32;20121;-73
2021/04/22 01:31:29;;;;;;;1.45;0.65;;;6.90;91.60;;;;;;4415237;32;20469;-73
2021/04/22 01:34:11;;;;;;;1.17;0.93;;;6.90;91.90;;;;;;4416120;32;20154;-73
2021/04/22 01:36:39;;;;;;;0.57;0.47;;;6.90;91.90;;;;;;4416459;32;20078;-73
2021/04/22 01:39:07;;;;;;;14.45;1.98;;;6.70;92.60;;;;;;4416044;32;20077;-73
2021/04/22 01:41:33;;;;;;;0.82;0.82;;;6.70;93.00;;;;;;4415077;32;20180;-74
2021/04/22 01:43:59;;;;;;;0.30;0.30;;;6.70;93.10;;;;;;4417034;32;20150;-73
2021/04/22 01:46:25;;;;;;;0.40;0.40;;;6.80;93.30;;;;;;4416595;32;20058;-73
2021/04/22 01:48:51;;;;;;;2.20;1.00;;;6.60;93.60;;;;;;4416370;32;20078;-73
2021/04/22 01:51:17;;;;;;;1.73;1.17;;;6.70;94.20;;;;;;4416293;32;20078;-73
2021/04/22 01:53:43;;;;;;;0.65;0.57;;;6.70;93.80;;;;;;4416356;32;20069;-73
2021/04/22 01:56:08;;;;;;;0.60;0.60;;;6.60;94.30;;;;;;4416357;32;20082;-73
2021/04/22 01:58:35;;;;;;;0.40;0.40;;;6.50;95.00;;;;;;4416578;32;20089;-73
2021/04/22 02:01:01;;;;;;;0.32;0.32;;;6.50;94.80;;;;;;4429457;32;20060;-73
2021/04/22 02:03:28;;;;;;;3.85;1.67;;;6.50;95.10;;;;;;4431251;32;20075;-73
2021/04/22 02:05:55;;;;;;;0.62;0.62;;;6.50;95.40;;;;;;4431014;32;20066;-73
2021/04/22 02:08:22;;;;;;;10.40;1.05;;;6.60;95.10;;;;;;4432742;32;20529;-73
2021/04/22 02:10:48;;;;;;;0.30;0.30;;;6.70;94.90;;;;;;4425467;32;20065;-73
2021/04/22 02:13:16;;;;;;;0.40;0.40;;;6.60;94.90;;;;;;4417265;32;20073;-73
2021/04/22 02:15:43;;;;;;;1.00;0.95;;;6.70;95.40;;;;;;4418070;32;20094;-73
2021/04/22 02:18:09;;;;;;;3.30;1.25;;;6.80;95.20;;;;;;4419372;32;20070;-73
2021/04/22 02:20:34;;;;;;;0.47;0.47;;;6.50;95.60;;;;;;4418094;32;20407;-72
2021/04/22 02:23:00;;;;;;;1.30;0.55;;;6.50;95.90;;;;;;4417939;32;20070;-73
2021/04/22 02:25:27;;;;;;;0.30;0.30;;;6.40;96.40;;;;;;4417787;32;20074;-73
2021/04/22 02:27:54;;;;;;;0.30;0.30;;;6.40;96.70;;;;;;4418053;32;20065;-73
2021/04/22 02:30:24;;;;;;;0.80;0.80;;;6.50;96.90;;;;;;4418276;32;20070;-73
2021/04/22 02:32:53;;;;;;;10.93;2.00;;;6.40;96.90;;;;;;4418884;32;20454;-73
2021/04/22 02:35:22;;;;;;;1.02;1.02;;;6.40;97.40;;;;;;4417302;32;20066;-73
2021/04/22 02:37:47;;;;;;;2.72;0.60;;;6.50;97.20;;;;;;4417825;32;20066;-73
2021/04/22 02:40:17;;;;;;;0.40;0.40;;;6.50;97.30;;;;;;4418624;32;20459;-74
2021/04/22 02:42:43;;;;;;;0.85;0.57;;;6.50;97.80;;;;;;4417774;32;20077;-72
2021/04/22 02:45:14;;;;;;;0.30;0.30;;;6.60;97.50;;;;;;4417701;32;20120;-72
2021/04/22 02:47:40;;;;;;;0.40;0.40;;;6.60;97.60;;;;;;4417892;32;20082;-73
2021/04/22 02:50:10;;;;;;;1.12;1.02;;;6.60;97.80;;;;;;4417593;32;20087;-73
2021/04/22 02:52:35;;;;;;;0.40;0.40;;;6.60;98.00;;;;;;4418243;32;20085;-73
2021/04/22 02:55:01;;;;;;;0.77;0.77;;;6.50;98.40;;;;;;4417156;32;20077;-73
2021/04/22 02:57:27;;;;;;;9.35;0.70;;;6.50;98.30;;;;;;4417998;32;20085;-72
2021/04/22 02:59:52;;;;;;;0.37;0.37;;;6.50;98.30;;;;;;4423124;32;20119;-73
2021/04/22 03:02:19;;;;;;;0.62;0.62;;;6.40;98.60;;;;;;4432488;32;20066;-74
2021/04/22 03:04:45;;;;;;;0.40;0.40;;;6.50;98.90;;;;;;4432400;32;20073;-73
2021/04/22 03:07:10;;;;;;;0.70;0.70;;;6.50;99.20;;;;;;4433991;32;20081;-73
2021/04/22 03:09:36;;;;;;;4.18;0.62;;;6.50;99.30;;;;;;4433675;32;20525;-73
2021/04/22 03:12:01;;;;;;;1.95;0.90;;;6.40;99.80;;;;;;4419203;32;20069;-73
2021/04/22 03:14:27;;;;;;;7.22;0.55;;;6.30;99.90;;;;;;4417576;32;20073;-73
2021/04/22 03:16:52;;;;;;;5.68;1.75;;;6.40;99.90;;;;;;4417002;32;20085;-73
2021/04/22 03:19:18;;;;;;;0.80;0.80;;;6.40;99.90;;;;;;4417447;32;20070;-73
2021/04/22 03:21:43;;;;;;;26.20;1.20;;;6.40;99.90;;;;;;4415644;32;20073;-73
2021/04/22 03:24:09;;;;;;;0.37;0.37;;;6.40;99.90;;;;;;4416410;32;20109;-73
2021/04/22 03:26:35;;;;;;;1.52;0.80;;;6.40;99.90;;;;;;4416706;32;20062;-73
2021/04/22 03:29:02;;;;;;;1.95;0.77;;;6.30;99.90;;;;;;4417267;32;20078;-73
2021/04/22 03:31:27;;;;;;;0.32;0.32;;;6.20;99.90;;;;;;4417098;32;20073;-73
2021/04/22 03:33:53;;;;;;;0.98;0.65;;;6.20;99.90;;;;;;4417431;32;20070;-73
2021/04/22 03:36:18;;;;;;;0.43;0.43;;;6.40;99.90;;;;;;4416389;32;20562;-73
2021/04/22 03:38:44;;;;;;;0.40;0.40;;;6.30;99.90;;;;;;4416691;32;20105;-73
2021/04/22 03:41:10;;;;;;;1.20;0.50;;;6.20;99.90;;;;;;4417020;32;20537;-73
2021/04/22 03:43:36;;;;;;;11.75;1.33;;;6.20;99.90;;;;;;4416924;32;20075;-73
2021/04/22 03:46:01;;;;;;;0.37;0.37;;;6.30;99.90;;;;;;4415864;32;20073;-73
2021/04/22 03:48:27;;;;;;;0.32;0.32;;;6.30;99.90;;;;;;4417080;32;20070;-73
2021/04/22 03:50:52;;;;;;;2.87;0.80;;;6.40;99.90;;;;;;4416095;32;20082;-73
2021/04/22 03:53:18;;;;;;;34.45;1.05;;;6.30;99.90;;;;;;4417080;32;20124;-73
2021/04/22 03:55:43;;;;;;;1.77;1.08;;;6.30;99.90;;;;;;4417101;32;20452;-73
2021/04/22 03:58:09;;;;;;;1.85;1.50;;;6.30;99.90;;;;;;4416616;32;20074;-73
2021/04/22 04:00:34;;;;;;;2.37;1.40;;;6.40;99.90;;;;;;4426379;32;20077;-73
2021/04/22 04:03:00;;;;;;;0.60;0.60;;;6.40;99.90;;;;;;4431563;32;20073;-73
2021/04/22 04:05:25;;;;;;;10.30;1.15;;;6.30;99.90;;;;;;4431784;32;20069;-73
2021/04/22 04:07:53;;;;;;;0.73;0.70;;;6.30;99.90;;;;;;4431889;32;20069;-73
2021/04/22 04:10:19;;;;;;;0.40;0.40;;;6.20;99.90;;;;;;4430707;32;20502;-74
2021/04/22 04:12:44;;;;;;;0.60;0.60;;;6.20;99.90;;;;;;4416895;32;20095;-74
2021/04/22 04:15:11;;;;;;;0.45;0.45;;;6.20;99.90;;;;;;4416722;32;20082;-73
2021/04/22 04:17:37;;;;;;;1.55;1.08;;;6.20;99.90;;;;;;4416561;32;20516;-74
2021/04/22 04:20:06;;;;;;;0.47;0.47;;;6.20;99.90;;;;;;4416485;32;20070;-73
2021/04/22 04:22:32;;;;;;;0.73;0.70;;;6.30;99.90;;;;;;4414852;32;20509;-73
2021/04/22 04:24:57;;;;;;;0.50;0.50;;;6.30;99.90;;;;;;4429245;32;20127;-73
2021/04/22 04:27:23;;;;;;;0.52;0.52;;;6.30;99.90;;;;;;4429387;32;20069;-73
2021/04/22 04:29:48;;;;;;;0.70;0.70;;;6.30;99.90;;;;;;4431535;32;20483;-73
2021/04/22 04:32:14;;;;;;;3.83;0.80;;;6.30;99.90;;;;;;4431602;32;20501;-73
2021/04/22 04:34:40;;;;;;;0.62;0.62;;;6.30;99.90;;;;;;4430355;32;20108;-73
2021/04/22 04:37:05;;;;;;;0.50;0.50;;;6.20;99.90;;;;;;4430427;32;20076;-73
2021/04/22 04:39:31;;;;;;;0.52;0.52;;;6.20;99.90;;;;;;4430824;32;20082;-73
2021/04/22 04:41:56;;;;;;;0.60;0.60;;;6.20;99.90;;;;;;4414879;32;20068;-73
2021/04/22 04:44:22;;;;;;;0.45;0.45;;;6.30;99.90;;;;;;4415178;32;20066;-73
2021/04/22 04:46:47;;;;;;;34.67;0.77;;;6.40;99.90;;;;;;4414360;32;20070;-73
2021/04/22 04:49:13;;;;;;;1.87;1.05;;;6.30;99.90;;;;;;4414773;32;20078;-73
2021/04/22 04:51:38;;;;;;;0.37;0.37;;;6.30;99.90;;;;;;4413759;32;20081;-73
2021/04/22 04:54:05;;;;;;;9.85;3.67;;;6.30;99.90;;;;;;4413828;32;20124;-73
2021/04/22 04:56:31;;;;;;;1.60;0.90;;;6.20;99.90;;;;;;4413789;32;20515;-74
2021/04/22 04:58:57;;;;;;;3.92;1.17;;;6.20;99.90;;;;;;4423380;32;20094;-73
2021/04/22 05:01:22;;;;;;;18.83;0.70;;;6.10;99.90;;;;;;4418510;32;20069;-74
2021/04/22 05:03:48;;;;;;;0.50;0.50;;;6.20;99.90;;;;;;4420196;32;20529;-74
2021/04/22 05:06:13;;;;;;;7.57;1.20;;;6.10;99.90;;;;;;4423343;32;20066;-73
2021/04/22 05:08:39;;;;;;;0.47;0.47;;;6.10;99.90;;;;;;4421114;32;20069;-74
2021/04/22 05:11:05;;;;;;;2.30;1.65;;;6.20;99.90;;;;;;4421678;32;20077;-73
2021/04/22 05:13:30;;;;;;;0.52;0.52;;;6.20;99.90;;;;;;4421374;32;20518;-74
2021/04/22 05:15:58;;;;;;;0.47;0.47;;;6.10;99.90;;;;;;4427025;32;20115;-74
2021/04/22 05:18:23;;;;;;;0.57;0.57;;;6.10;99.90;;;;;;4408674;32;20077;-74
2021/04/22 05:20:50;;;;;;;1.80;1.25;;;6.10;99.90;;;;;;4418459;32;20127;-73
2021/04/22 05:23:19;;;;;;;0.60;0.60;;;6.10;99.90;;;;;;4416487;32;20467;-74
2021/04/22 05:25:47;;;;;;;0.50;0.50;;;6.20;99.90;;;;;;4414832;32;20120;-73
2021/04/22 05:28:13;;;;;;;1.02;0.60;;;6.20;99.90;;;;;;4410648;32;20184;-74
2021/04/22 05:30:41;;;;;;;0.77;0.77;;;6.30;99.90;;;;;;4409271;32;20526;-73
2021/04/22 05:33:08;;;;;;;3.72;2.00;;;6.40;99.90;;;;;;4400605;32;20081;-74
2021/04/22 05:35:36;;;;;;;0.65;0.65;;;6.40;99.90;;;;;;4414591;32;20134;-74
2021/04/22 05:38:02;;;;;;;4.12;0.90;;;6.50;99.90;;;;;;4419175;32;20118;-73
2021/04/22 05:40:29;;;;;;;0.40;0.40;;;6.60;99.90;;;;;;4425912;32;20073;-74
2021/04/22 05:42:55;;;;;;;0.68;0.68;;;6.60;99.90;;;;;;4413657;32;20510;-73
2021/04/22 05:45:20;;;;;;;3.70;0.70;;;6.40;99.90;;;;;;4421073;32;20163;-74
2021/04/22 05:47:46;;;;;;;3.17;1.30;;;6.40;99.90;;;;;;4419383;32;20094;-73
2021/04/22 05:50:14;;;;;;;1.27;0.73;;;6.50;99.90;;;;;;4418764;32;20129;-72
2021/04/22 05:52:39;;;;;;;0.65;0.65;;;6.50;99.90;;;;;;4413412;32;20101;-73
2021/04/22 05:55:06;;;;;;;4.37;1.08;;;6.40;99.90;;;;;;4424759;32;20132;-73
2021/04/22 05:57:32;;;;;;;0.73;0.73;;;6.50;99.90;;;;;;4419272;32;20069;-73
2021/04/22 05:59:57;;;;;;;1.77;0.90;;;6.50;99.90;;;;;;4415423;32;20683;-73
2021/04/22 06:02:24;;;;;;;0.35;0.35;;;6.50;99.90;;;;;;4416521;32;20085;-74
2021/04/22 06:04:50;;;;;;;1.45;1.25;;;6.60;99.90;;;;;;4419830;32;20483;-73
2021/04/22 06:07:15;;;;;;;0.60;0.60;;;6.50;99.90;;;;;;4423685;32;20089;-74
2021/04/22 06:09:40;;;;;;;0.40;0.40;;;6.50;99.90;;;;;;4423275;32;20078;-73
2021/04/22 06:12:07;;;;;;;0.52;0.52;;;6.60;99.90;;;;;;4416467;32;20653;-74
2021/04/22 06:14:33;;;;;;;11.07;0.82;;;6.70;99.90;;;;;;4421373;32;20503;-73
2021/04/22 06:16:59;;;;;;;4.35;0.37;;;6.80;99.90;;;;;;4419268;32;20093;-73
2021/04/22 06:19:25;;;;;;;0.47;0.47;;;6.80;99.90;;;;;;4412387;32;20065;-73
2021/04/22 06:21:50;;;;;;;0.30;0.30;;;6.70;99.90;;;;;;4416759;32;20064;-72
2021/04/22 06:24:16;;;;;;;1.83;0.93;;;6.60;99.90;;;;;;4419665;32;20420;-73
2021/04/22 06:26:43;;;;;;;3.00;1.55;;;6.70;99.90;;;;;;4416105;32;20807;-73
2021/04/22 06:29:10;;;;;;;45.88;1.83;;;6.70;99.90;;;;;;4418040;32;20061;-72
2021/04/22 06:31:36;;;;;;;0.30;0.30;;;6.90;99.90;;;;;;4415978;32;20903;-72
2021/04/22 06:34:02;;;;;;;0.60;0.60;;;6.90;99.90;;;;;;4422676;32;20089;-72
2021/04/22 06:36:27;;;;;;;0.70;0.70;;;6.80;99.90;;;;;;4420282;32;20070;-72
2021/04/22 06:38:53;;;;;;;0.88;0.65;;;6.80;99.90;;;;;;4422866;32;20124;-72
2021/04/22 06:41:18;;;;;;;2.37;0.73;;;6.80;99.90;;;;;;4423466;32;20077;-73
2021/04/22 06:43:44;;;;;;;0.40;0.40;;;6.90;99.90;;;;;;4417558;32;20460;-73
2021/04/22 06:46:09;;;;;;;0.57;0.50;;;6.90;99.90;;;;;;4417841;32;20495;-73
2021/04/22 06:48:35;;;;;;;4.55;1.10;;;6.80;99.90;;;;;;4419840;32;20077;-73
2021/04/22 06:51:01;;;;;;;0.65;0.65;;;6.80;99.90;;;;;;4418608;32;20093;-73
2021/04/22 06:53:26;;;;;;;4.35;0.80;;;6.90;99.90;;;;;;4420241;32;20082;-73
2021/04/22 06:55:52;;;;;;;0.80;0.80;;;6.90;99.90;;;;;;4417788;32;20253;-73
2021/04/22 06:58:17;;;;;;;0.30;0.30;;;6.90;99.90;;;;;;4414499;32;20066;-73
2021/04/22 07:00:43;;;;;;;0.30;0.30;;;6.80;99.90;;;;;;4418500;32;20066;-73
2021/04/22 07:03:09;;;;;;;0.47;0.47;;;7.00;99.90;;;;;;4418435;32;20062;-73
2021/04/22 07:05:35;;;;;;;0.43;0.37;;;7.00;99.90;;;;;;4417018;32;20522;-73
2021/04/22 07:08:02;;;;;;;0.35;0.35;;;7.00;99.90;;;;;;4418414;32;20081;-73
2021/04/22 07:10:28;;;;;;;0.30;0.30;;;7.10;99.90;;;;;;4424744;32;20121;-73
2021/04/22 07:12:54;;;;;;;0.32;0.32;;;7.30;99.90;;;;;;4418710;32;20069;-73
2021/04/22 07:15:19;;;;;;;5.93;1.08;;;7.50;99.90;;;;;;4421272;32;20546;-73
2021/04/22 07:17:45;;;;;;;1.83;0.65;;;7.50;99.90;;;;;;4423418;32;20406;-73
2021/04/22 07:20:16;;;;;;;0.45;0.45;;;7.40;99.90;;;;;;4419130;32;20085;-73
2021/04/22 07:22:41;;;;;;;0.73;0.73;;;7.40;99.90;;;;;;4417132;32;20081;-73
2021/04/22 07:25:09;;;;;;;0.50;0.50;;;7.60;99.90;;;;;;4422947;32;20074;-73
2021/04/22 07:27:34;;;;;;;0.35;0.35;;;7.50;99.90;;;;;;4416669;32;20077;-73
2021/04/22 07:30:00;;;;;;;0.30;0.30;;;7.50;99.90;;;;;;4414951;32;20409;-73
2021/04/22 07:32:28;;;;;;;0.47;0.47;;;7.50;99.90;;;;;;4423163;32;20064;-73
2021/04/22 07:34:53;;;;;;;14.80;0.60;;;7.40;99.90;;;;;;4416671;32;20424;-73
2021/04/22 07:37:20;;;;;;;1.55;1.05;;;7.40;99.90;;;;;;4424241;32;20066;-73
2021/04/22 07:39:46;;;;;;;0.57;0.52;;;7.50;99.90;;;;;;4423031;32;20140;-74
2021/04/22 07:42:12;;;;;;;0.68;0.68;;;7.60;99.90;;;;;;4422994;32;20593;-74
2021/04/22 07:44:39;;;;;;;0.52;0.50;;;7.70;99.90;;;;;;4428294;32;20064;-74
2021/04/22 07:47:06;;;;;;;2.42;1.35;;;7.60;99.90;;;;;;4421750;32;20105;-74
2021/04/22 07:49:32;;;;;;;0.40;0.40;;;7.60;99.90;;;;;;4421566;32;20415;-73
2021/04/22 07:51:58;;;;;;;0.40;0.40;;;7.80;99.90;;;;;;4419806;32;20065;-74
2021/04/22 07:54:23;;;;;;;0.50;0.50;;;7.80;99.90;;;;;;4426044;32;20069;-74
2021/04/22 07:56:51;;;;;;;0.40;0.40;;;8.00;99.90;;;;;;4412143;32;20070;-74
2021/04/22 07:59:16;;;;;;;0.65;0.65;;;8.10;99.90;;;;;;4423679;32;20468;-74
2021/04/22 08:01:42;;;;;;;0.65;0.55;;;8.10;99.90;;;;;;4418082;32;20125;-73
2021/04/22 08:04:08;;;;;;;0.60;0.60;;;8.10;99.90;;;;;;4417672;32;20077;-74
2021/04/22 08:06:34;;;;;;;0.40;0.40;;;8.20;99.90;;;;;;4420336;32;20065;-74
2021/04/22 08:09:00;;;;;;;0.40;0.40;;;8.20;99.90;;;;;;4418631;32;20128;-75
2021/04/22 08:11:27;;;;;;;0.52;0.52;;;8.20;99.90;;;;;;4424014;32;20069;-75
2021/04/22 08:13:53;;;;;;;0.77;0.77;;;8.30;99.90;;;;;;4423693;32;20154;-76
2021/04/22 08:16:18;;;;;;;20.95;3.95;;;8.40;99.90;;;;;;4421589;32;20070;-74
2021/04/22 08:18:44;;;;;;;5.40;1.20;;;8.60;99.90;;;;;;4420297;32;20560;-73
2021/04/22 08:21:10;;;;;;;0.47;0.47;;;8.70;99.90;;;;;;4416942;32;20077;-74
2021/04/22 08:23:35;;;;;;;0.43;0.43;;;8.90;99.90;;;;;;4417079;32;20094;-73
2021/04/22 08:26:06;;;;;;;0.50;0.50;;;9.10;99.90;;;;;;4417920;32;20405;-73
2021/04/22 08:28:32;;;;;;;0.60;0.60;;;9.30;99.80;;;;;;4416341;32;20132;-73
2021/04/22 08:31:01;;;;;;;4.05;2.05;;;9.40;99.40;;;;;;4416601;32;20572;-73
2021/04/22 08:33:30;;;;;;;12.23;3.28;;;9.60;98.80;;;;;;4418038;32;20101;-74
2021/04/22 08:35:55;;;;;;;2.53;0.77;;;9.70;98.90;;;;;;4418552;32;20614;-72
2021/04/22 08:38:21;;;;;;;6.70;0.70;;;9.30;98.70;;;;;;4415344;32;20085;-72
2021/04/22 08:40:48;;;;;;;0.30;0.30;;;9.20;98.90;;;;;;4417750;32;20065;-73
2021/04/22 08:43:13;;;;;;;1.48;0.50;;;9.20;98.90;;;;;;4419175;32;20064;-73
2021/04/22 08:45:40;;;;;;;1.17;0.93;;;9.20;98.30;;;;;;4418074;32;20065;-72
2021/04/22 08:48:06;;;;;;;3.92;1.02;;;9.20;98.30;;;;;;4423994;32;20152;-74
2021/04/22 08:50:33;;;;;;;7.57;2.95;;;9.30;98.50;;;;;;4421032;32;20457;-73
2021/04/22 08:53:04;;;;;;;0.43;0.40;;;9.40;97.90;;;;;;4417646;32;20077;-73
2021/04/22 08:55:33;;;;;;;6.53;0.77;;;9.30;97.80;;;;;;4423142;32;20136;-72
2021/04/22 08:58:01;;;;;;;0.30;0.30;;;9.30;97.80;;;;;;4422568;32;20616;-72
2021/04/22 09:00:31;;;;;;;0.40;0.40;;;9.40;98.00;;;;;;4422621;32;20062;-71
2021/04/22 09:02:56;;;;;;;2.17;0.93;;;9.50;97.80;;;;;;4417548;32;20534;-71
2021/04/22 09:05:22;;;;;;;0.88;0.82;;;9.60;97.50;;;;;;4422254;32;20132;-72
2021/04/22 09:07:48;;;;;;;0.30;0.30;;;9.60;97.80;;;;;;4415968;32;20072;-72
2021/04/22 09:10:18;;;;;;;0.40;0.40;;;9.90;97.30;;;;;;4417653;32;20374;-72
2021/04/22 09:13:05;;;;;;;0.68;0.68;;;10.30;96.40;;;;;;4420347;32;20062;-73
2021/04/22 09:15:32;;;;;;;0.30;0.30;;;10.50;95.90;;;;;;4424025;32;20487;-72
2021/04/22 09:18:02;;;;;;;0.60;0.55;;;10.10;96.10;;;;;;4412767;32;20065;-73
2021/04/22 09:20:32;;;;;;;0.40;0.40;;;10.30;96.20;;;;;;4418824;32;20066;-72
2021/04/22 09:22:57;;;;;;;0.47;0.47;;;10.60;95.10;;;;;;4417561;32;20070;-72
2021/04/22 09:25:25;;;;;;;9.13;2.05;;;10.80;95.00;;;;;;4420669;32;20194;-72
2021/04/22 09:27:55;;;;;;;0.93;0.65;;;10.80;94.20;;;;;;4417890;32;20201;-72
2021/04/22 09:30:36;;;;;;;7.07;1.08;;;10.90;94.20;;;;;;4414898;32;20054;-72
2021/04/22 09:33:02;;;;;;;26.62;3.17;;;10.80;95.20;;;;;;4417012;32;20260;-71
2021/04/22 09:35:28;;;;;;;0.50;0.50;;;11.00;94.10;;;;;;4409807;32;20137;-71
2021/04/22 09:37:54;;;;;;;0.28;0.28;;;10.60;93.90;;;;;;4415861;32;20157;-71
2021/04/22 09:40:38;;;;;;;0.50;0.50;;;10.80;94.50;;;;;;4414596;32;74775;-72
2021/04/22 09:43:07;;;;;;;0.60;0.47;;;10.80;94.10;;;;;;4415819;32;20595;-72
2021/04/22 09:45:34;;;;;;;0.62;0.62;;;11.00;93.60;;;;;;4416916;32;20127;-71
2021/04/22 09:48:00;;;;;;;4.37;1.10;;;11.20;93.40;;;;;;4410503;32;20085;-71
2021/04/22 09:50:28;;;;;;;1.17;0.65;;;11.50;91.40;;;;;;4422600;32;20058;-71
2021/04/22 09:52:57;;;;;;;0.40;0.40;;;11.60;91.50;;;;;;4408719;32;20144;-71
2021/04/22 09:55:29;;;;;;;0.30;0.30;;;11.30;91.90;;;;;;4419125;32;20136;-71
2021/04/22 09:57:55;;;;;;;1.65;0.93;;;10.90;92.40;;;;;;4414498;32;20065;-71
2021/04/22 10:00:27;;;;;;;0.20;0.20;;;10.60;92.60;;;;;;4408663;32;20070;-71
2021/04/22 10:02:56;;;;;;;0.75;0.43;;;10.50;92.60;;;;;;4424075;32;20081;-71
2021/04/22 10:05:25;;;;;;;0.75;0.75;;;10.30;93.20;;;;;;4414765;32;20074;-71
2021/04/22 10:08:01;;;;;;;0.30;0.30;;;10.50;92.50;;;;;;4420820;32;20120;-71
2021/04/22 10:10:27;;;;;;;0.50;0.50;;;10.90;91.60;;;;;;4417430;32;20082;-71
2021/04/22 10:13:00;;;;;;;0.90;0.68;;;10.90;90.90;;;;;;4419867;32;20073;-71
2021/04/22 10:15:26;;;;;;;2.97;1.37;;;10.70;91.50;;;;;;4414526;32;20085;-71
2021/04/22 10:17:56;;;;;;;0.60;0.60;;;10.70;91.50;;;;;;4417291;32;20073;-73
2021/04/22 10:20:24;;;;;;;0.65;0.65;;;10.90;92.20;;;;;;4419110;32;20099;-72
2021/04/22 10:22:53;;;;;;;0.40;0.40;;;11.10;91.40;;;;;;4413145;32;20082;-72
2021/04/22 10:25:21;;;;;;;0.30;0.30;;;11.30;91.60;;;;;;4414675;32;20138;-72
2021/04/22 10:27:47;;;;;;;2.50;0.55;;;11.80;90.50;;;;;;4413282;32;20424;-72
2021/04/22 10:30:16;;;;;;;0.30;0.30;;;12.00;88.80;;;;;;4413177;32;20058;-71
2021/04/22 10:32:42;;;;;;;2.85;0.80;;;12.00;87.50;;;;;;4415805;32;20151;-70
2021/04/22 10:35:11;;;;;;;0.45;0.45;;;11.70;88.00;;;;;;4421492;32;21172;-71
2021/04/22 10:37:40;;;;;;;2.62;1.30;;;11.70;89.00;;;;;;4418013;32;20089;-71
2021/04/22 10:40:06;;;;;;;0.70;0.70;;;11.70;84.60;;;;;;4423092;32;20113;-70
2021/04/22 10:42:35;;;;;;;0.65;0.65;;;12.20;84.30;;;;;;4418464;32;20254;-70
2021/04/22 10:45:03;;;;;;;0.60;0.60;;;12.90;81.40;;;;;;4427367;32;20128;-71
2021/04/22 10:47:30;;;;;;;0.30;0.30;;;13.40;79.70;;;;;;4422163;32;20128;-72
2021/04/22 10:49:56;;;;;;;0.77;0.77;;;13.50;78.30;;;;;;4413330;32;20072;-72
2021/04/22 10:52:21;;;;;;;0.55;0.50;;;13.10;78.80;;;;;;4416552;32;20073;-72
2021/04/22 10:54:50;;;;;;;1.08;0.98;;;12.80;79.40;;;;;;4422248;32;20069;-72
2021/04/22 10:57:18;;;;;;;0.30;0.30;;;12.40;77.10;;;;;;4416153;32;20097;-71
2021/04/22 10:59:44;;;;;;;2.65;0.70;;;12.10;79.00;;;;;;4417824;32;20086;-71
2021/04/22 11:02:15;;;;;;;0.50;0.50;;;12.00;80.10;;;;;;4414691;32;20153;-71
2021/04/22 11:04:41;;;;;;;;;;;11.80;80.60;;;;;;4417877;32;20074;-71
2021/04/22 11:07:26;;;;;;;0.90;0.60;;;11.90;82.60;;;;;;4422726;32;19964;-71
2021/04/22 11:09:55;;;;;;;1.65;0.85;;;12.60;80.10;;;;;;4411312;32;20131;-71
2021/04/22 11:12:26;;;;;;;0.57;0.57;;;12.60;79.40;;;;;;4419814;32;20069;-71
2021/04/22 11:14:53;;;;;;;0.30;0.30;;;12.50;79.10;;;;;;4421196;32;20468;-72
2021/04/22 11:17:20;;;;;;;0.40;0.40;;;12.50;79.30;;;;;;4412594;32;20088;-71
2021/04/22 11:19:49;;;;;;;0.62;0.62;;;12.30;78.50;;;;;;4415577;32;20061;-70
2021/04/22 11:22:25;;;;;;;0.82;0.82;;;11.90;78.10;;;;;;4415508;32;20428;-71
2021/04/22 11:24:57;;;;;;;6.45;0.70;;;12.30;80.10;;;;;;4417975;32;20817;-72
2021/04/22 11:27:25;;;;;;;0.30;0.30;;;13.30;76.00;;;;;;4415757;32;20090;-72
2021/04/22 11:29:54;;;;;;;0.47;0.47;;;14.00;74.00;;;;;;4417810;32;20057;-72
2021/04/22 11:32:22;;;;;;;0.43;0.43;;;14.10;72.70;;;;;;4420336;32;20152;-72
2021/04/22 11:34:49;;;;;;;0.88;0.73;;;14.00;68.60;;;;;;4418299;32;20129;-72
2021/04/22 11:37:21;;;;;;;3.83;1.08;;;13.80;66.50;;;;;;4420665;32;20089;-71
2021/04/22 11:39:47;;;;;;;0.20;0.20;;;13.20;70.20;;;;;;4417418;32;20428;-72
2021/04/22 11:42:13;;;;;;;0.30;0.30;;;12.60;74.20;;;;;;4420028;32;20178;-71
2021/04/22 11:44:42;;;;;;;0.80;0.70;;;12.50;75.60;;;;;;4419522;32;20080;-72
2021/04/22 11:47:28;;;;;;;4.12;0.57;;;12.90;70.50;;;;;;4419229;32;20113;-71
2021/04/22 11:50:08;;;;;;;1.02;0.82;;;13.20;68.60;;;;;;4417659;32;20070;-72
2021/04/22 11:52:53;;;;;;;0.63;0.60;;;13.20;67.30;;;;;;4414983;32;20555;-72
2021/04/22 11:55:42;;;;;;;0.62;0.62;;;12.90;68.10;;;;;;4420256;32;20528;-71
2021/04/22 11:58:11;;;;;;;1.00;0.88;;;12.90;68.90;;;;;;4409446;32;20144;-71
2021/04/22 12:00:48;;;;;;;1.65;0.57;;;12.90;68.90;;;;;;4416696;32;20135;-72
2021/04/22 12:03:21;;;;;;;0.30;0.30;;;12.90;69.90;;;;;;4420744;32;20081;-72
2021/04/22 12:05:51;;;;;;;2.90;0.73;;;13.00;71.10;;;;;;4417201;32;20124;-72
2021/04/22 12:08:17;;;;;;;4.85;0.52;;;13.00;70.40;;;;;;4419335;32;20084;-72
2021/04/22 12:10:48;;;;;;;0.35;0.35;;;12.80;68.90;;;;;;4423434;32;20155;-71
2021/04/22 12:13:19;;;;;;;0.80;0.77;;;12.40;70.00;;;;;;4421251;32;20078;-71
2021/04/22 12:15:47;;;;;;;15.40;1.15;;;12.40;69.20;;;;;;4420776;32;20128;-71
2021/04/22 12:18:24;;;;;;;2.28;0.60;;;12.40;69.50;;;;;;4422168;32;20124;-72
2021/04/22 12:20:52;;;;;;;0.30;0.30;;;12.40;71.10;;;;;;4408948;32;20077;-72
2021/04/22 12:23:35;;;;;;;2.30;1.23;;;12.60;70.50;;;;;;4415047;32;20124;-72
2021/04/22 12:26:22;;;;;;;0.30;0.30;;;12.50;71.50;;;;;;4417574;32;20054;-72
2021/04/22 12:28:53;;;;;;;0.40;0.40;;;12.30;69.60;;;;;;4406294;32;20174;-72
2021/04/22 12:31:29;;;;;;;0.77;0.47;;;12.30;69.20;;;;;;4413680;32;20412;-72
2021/04/22 12:33:57;;;;;;;0.40;0.40;;;12.50;69.40;;;;;;4419714;32;20062;-72
2021/04/22 12:36:22;;;;;;;14.87;0.95;;;12.70;70.00;;;;;;4418827;32;20415;-72
2021/04/22 12:38:48;;;;;;;0.30;0.30;;;12.60;70.20;;;;;;4421755;32;20079;-72
2021/04/22 12:41:16;;;;;;;0.43;0.43;;;12.70;71.80;;;;;;4422463;32;20061;-72
2021/04/22 12:43:46;;;;;;;0.60;0.35;;;12.60;70.90;;;;;;4422912;32;20120;-72
2021/04/22 12:46:14;;;;;;;0.30;0.30;;;12.50;68.50;;;;;;4417909;32;20057;-72
2021/04/22 12:48:44;;;;;;;1.02;0.80;;;12.30;68.60;;;;;;4426796;32;20066;-72
2021/04/22 12:51:11;;;;;;;0.37;0.37;;;12.10;68.80;;;;;;4424634;32;20078;-72
2021/04/22 12:53:39;;;;;;;0.50;0.50;;;11.90;71.20;;;;;;4423233;32;20088;-71